Time;durP1;ratioP1;P1;durP2;ratioP2;P2;SDS_P1;SDS_P2;PMS_P1;PMS_P2;Temp;Humidity;BMP_temperature;BMP_pressure;BME280_temperature;BME280_humidity;BME280_pressure;Samples;Min_cycle;Max_cycle;Signal;HPM_P1;HPM_P2
2022/05/20 00:01:47;;;;;;;27.45;15.30;;;13.60;99.90;;;;;;4963051;28;20051;-77
2022/05/20 00:04:13;;;;;;;24.08;15.02;;;13.60;99.90;;;;;;4961708;29;20091;-77
2022/05/20 00:06:38;;;;;;;28.52;13.68;;;13.60;99.90;;;;;;4961942;28;20457;-76
2022/05/20 00:09:04;;;;;;;23.45;14.55;;;13.60;99.90;;;;;;4961512;29;20059;-77
2022/05/20 00:11:30;;;;;;;28.52;15.02;;;13.60;99.90;;;;;;4961102;28;20044;-74
2022/05/20 00:13:56;;;;;;;28.85;14.52;;;13.60;99.90;;;;;;4960713;29;20388;-77
2022/05/20 00:16:22;;;;;;;25.73;14.10;;;13.60;99.90;;;;;;4959405;29;20138;-77
2022/05/20 00:18:47;;;;;;;24.33;13.23;;;13.60;99.90;;;;;;4961570;29;20055;-79
2022/05/20 00:21:13;;;;;;;22.52;13.23;;;13.70;99.90;;;;;;4959893;28;20372;-77
2022/05/20 00:23:39;;;;;;;20.60;13.15;;;13.60;99.90;;;;;;4960742;29;20134;-76
2022/05/20 00:26:05;;;;;;;26.35;13.05;;;13.60;99.90;;;;;;4976728;28;20117;-80
2022/05/20 00:28:31;;;;;;;27.00;13.77;;;13.60;99.90;;;;;;4959253;29;20087;-76
2022/05/20 00:31:06;;;;;;;23.00;13.47;;;13.60;99.90;;;;;;4960242;29;20047;-77
2022/05/20 00:33:33;;;;;;;23.33;13.77;;;13.50;99.90;;;;;;4961380;28;20287;-78
2022/05/20 00:35:59;;;;;;;;;;;13.50;99.90;;;;;;4959599;29;20047;-79
2022/05/20 00:38:26;;;;;;;21.67;12.40;;;13.50;99.90;;;;;;4959284;28;19946;-76
2022/05/20 00:40:53;;;;;;;23.52;12.90;;;13.60;99.90;;;;;;4974125;28;20081;-77
2022/05/20 00:43:25;;;;;;;;;;;13.60;99.90;;;;;;4960021;29;20055;-77
2022/05/20 00:46:02;;;;;;;28.90;13.35;;;13.50;99.90;;;;;;4958558;28;20183;-75
2022/05/20 00:48:29;;;;;;;24.48;13.82;;;13.60;99.90;;;;;;4959734;29;20148;-75
2022/05/20 00:51:06;;;;;;;26.65;14.50;;;13.50;99.90;;;;;;4960092;28;20158;-75
2022/05/20 00:53:35;;;;;;;;;;;13.50;99.90;;;;;;4961411;28;20408;-76
2022/05/20 00:56:03;;;;;;;23.60;13.10;;;13.50;99.90;;;;;;4943706;29;20099;-76
2022/05/20 00:58:29;;;;;;;24.55;13.02;;;13.40;99.90;;;;;;4960299;29;20050;-76
2022/05/20 01:00:56;;;;;;;24.05;13.35;;;13.40;99.90;;;;;;4959566;29;20121;-77
2022/05/20 01:03:26;;;;;;;25.45;13.07;;;13.40;99.90;;;;;;4958465;29;20093;-76
2022/05/20 01:05:54;;;;;;;24.23;12.55;;;13.40;99.90;;;;;;4958486;29;20496;-76
2022/05/20 01:08:29;;;;;;;28.00;13.93;;;13.50;99.90;;;;;;4961042;28;20043;-78
2022/05/20 01:10:56;;;;;;;31.67;13.50;;;13.30;99.90;;;;;;4960469;29;20047;-78
2022/05/20 01:13:25;;;;;;;24.77;13.40;;;13.30;99.90;;;;;;4945963;29;20077;-77
2022/05/20 01:15:52;;;;;;;29.95;14.48;;;13.30;99.90;;;;;;4961853;29;20455;-77
2022/05/20 01:18:18;;;;;;;27.23;13.23;;;13.40;99.90;;;;;;4960494;29;20091;-77
2022/05/20 01:20:47;;;;;;;34.30;15.32;;;13.40;99.90;;;;;;4964851;28;20098;-75
2022/05/20 01:23:19;;;;;;;31.10;13.73;;;13.40;99.90;;;;;;4960869;29;20074;-76
2022/05/20 01:25:51;;;;;;;30.10;12.95;;;13.50;99.90;;;;;;4975699;28;20051;-76
2022/05/20 01:28:19;;;;;;;28.40;14.27;;;13.50;99.90;;;;;;4974879;28;20047;-76
2022/05/20 01:30:52;;;;;;;24.88;12.15;;;13.50;99.90;;;;;;4959913;29;20051;-76
2022/05/20 01:33:27;;;;;;;28.67;13.13;;;13.50;99.90;;;;;;4959556;28;20495;-77
2022/05/20 01:35:53;;;;;;;27.90;13.27;;;13.50;99.90;;;;;;4962022;29;20051;-76
2022/05/20 01:38:19;;;;;;;28.00;13.43;;;13.60;99.90;;;;;;4964761;28;20051;-75
2022/05/20 01:41:06;;;;;;;26.73;13.13;;;13.60;99.90;;;;;;4963057;28;20047;-76
2022/05/20 01:44:05;;;;;;;24.30;13.75;;;13.60;99.90;;;;;;4962610;28;20369;-77
2022/05/20 01:46:52;;;;;;;27.48;13.98;;;13.60;99.90;;;;;;4938441;28;20138;-75
2022/05/20 01:49:26;;;;;;;26.50;14.07;;;13.60;99.90;;;;;;4960297;29;20051;-75
2022/05/20 01:52:01;;;;;;;26.30;13.38;;;13.60;99.90;;;;;;4959820;28;20085;-76
2022/05/20 01:54:52;;;;;;;27.77;13.88;;;13.60;99.90;;;;;;4960322;29;20051;-76
2022/05/20 01:57:21;;;;;;;29.35;14.10;;;13.60;99.90;;;;;;4961271;28;20051;-76
2022/05/20 01:59:53;;;;;;;22.80;12.63;;;13.60;99.90;;;;;;4960305;29;20230;-76
2022/05/20 02:02:51;;;;;;;28.70;14.07;;;13.50;99.90;;;;;;4975925;28;20043;-75
2022/05/20 02:05:44;;;;;;;26.20;13.70;;;13.60;99.90;;;;;;4944121;29;20419;-75
2022/05/20 02:08:27;;;;;;;23.92;13.40;;;13.50;99.90;;;;;;4933753;29;20059;-77
2022/05/20 02:11:17;;;;;;;29.13;12.88;;;13.40;99.90;;;;;;4978357;28;20039;-76
2022/05/20 02:13:53;;;;;;;23.50;13.20;;;13.40;99.90;;;;;;4979922;28;20043;-75
2022/05/20 02:16:26;;;;;;;23.35;13.52;;;13.40;99.90;;;;;;4962920;29;20122;-78
2022/05/20 02:18:59;;;;;;;25.17;13.68;;;13.40;99.90;;;;;;4960960;29;20142;-76
2022/05/20 02:21:29;;;;;;;24.33;13.25;;;13.40;99.90;;;;;;4963800;28;20131;-76
2022/05/20 02:24:01;;;;;;;24.25;12.75;;;13.40;99.90;;;;;;4962955;29;20047;-75
2022/05/20 02:26:32;;;;;;;29.38;13.20;;;13.40;99.90;;;;;;4929883;29;20047;-77
2022/05/20 02:29:07;;;;;;;24.95;12.40;;;13.40;99.90;;;;;;4961442;29;20047;-75
2022/05/20 02:31:46;;;;;;;24.13;12.32;;;13.50;99.90;;;;;;4959515;29;20051;-77
2022/05/20 02:34:12;;;;;;;23.67;12.60;;;13.50;99.90;;;;;;4959535;29;20055;-77
2022/05/20 02:36:38;;;;;;;32.65;13.93;;;13.60;99.90;;;;;;4974541;28;20117;-76
2022/05/20 02:39:07;;;;;;;23.95;12.48;;;13.50;99.90;;;;;;4959500;29;20420;-77
2022/05/20 02:41:32;;;;;;;25.25;12.90;;;13.50;99.90;;;;;;4958339;29;20148;-76
2022/05/20 02:43:58;;;;;;;25.15;12.75;;;13.50;99.90;;;;;;4958494;29;20051;-76
2022/05/20 02:46:25;;;;;;;29.25;13.85;;;13.50;99.90;;;;;;4956925;29;20043;-76
2022/05/20 02:48:51;;;;;;;28.98;14.60;;;13.50;99.90;;;;;;4957755;29;20055;-76
2022/05/20 02:51:17;;;;;;;27.02;13.70;;;13.50;99.90;;;;;;4938953;29;20047;-76
2022/05/20 02:53:44;;;;;;;22.52;13.00;;;13.50;99.90;;;;;;4954218;29;20145;-76
2022/05/20 02:56:09;;;;;;;;;;;13.50;99.90;;;;;;4955611;28;20047;-76
2022/05/20 03:04:11;;;;;;;20.52;9.13;;;13.40;99.90;;;;;;4956199;28;20058;-77
2022/05/20 03:06:47;;;;;;;22.95;12.55;;;13.40;99.90;;;;;;4959903;28;20047;-78
2022/05/20 03:09:15;;;;;;;28.60;14.20;;;13.40;99.90;;;;;;4958778;29;20606;-77
2022/05/20 03:11:41;;;;;;;24.75;13.13;;;13.40;99.90;;;;;;4958708;29;20099;-76
2022/05/20 03:14:10;;;;;;;23.27;12.20;;;13.30;99.90;;;;;;4973910;28;20495;-76
2022/05/20 03:16:38;;;;;;;24.90;12.02;;;13.30;99.90;;;;;;4941436;29;20463;-76
2022/05/20 03:19:04;;;;;;;22.45;11.77;;;13.30;99.90;;;;;;4958677;29;20123;-75
2022/05/20 03:21:31;;;;;;;28.65;13.27;;;13.30;99.90;;;;;;4957788;29;20061;-77
2022/05/20 03:23:59;;;;;;;21.65;13.13;;;13.40;99.90;;;;;;4958421;28;20125;-76
2022/05/20 03:26:26;;;;;;;26.80;13.68;;;13.30;99.90;;;;;;4957566;29;20403;-77
2022/05/20 03:28:52;;;;;;;24.25;13.23;;;13.20;99.90;;;;;;4958994;29;20047;-76
2022/05/20 03:31:18;;;;;;;24.15;12.27;;;13.20;99.90;;;;;;4958190;29;20134;-76
2022/05/20 03:33:46;;;;;;;27.67;14.07;;;13.20;99.90;;;;;;4974148;28;20047;-76
2022/05/20 03:36:12;;;;;;;25.55;11.98;;;13.30;99.90;;;;;;4960765;29;20055;-76
2022/05/20 03:38:39;;;;;;;25.50;11.80;;;13.30;99.90;;;;;;4957451;29;20047;-76
2022/05/20 03:41:05;;;;;;;20.00;11.27;;;13.30;99.90;;;;;;4973036;28;20043;-76
2022/05/20 03:43:33;;;;;;;19.00;10.27;;;13.30;99.90;;;;;;4973535;28;20059;-76
2022/05/20 03:45:59;;;;;;;22.50;11.27;;;13.20;99.90;;;;;;4957695;29;20047;-77
2022/05/20 03:48:25;;;;;;;20.13;10.73;;;13.20;99.90;;;;;;4959352;28;20051;-76
2022/05/20 03:50:51;;;;;;;25.48;12.32;;;13.20;99.90;;;;;;4974136;28;20050;-76
2022/05/20 03:53:16;;;;;;;22.77;12.25;;;13.20;99.90;;;;;;4958710;29;20136;-76
2022/05/20 03:55:43;;;;;;;20.58;11.18;;;13.20;99.90;;;;;;4959957;29;20129;-76
2022/05/20 03:58:09;;;;;;;23.98;11.05;;;13.10;99.90;;;;;;4960293;29;20043;-76
2022/05/20 04:01:56;;;;;;;20.73;11.50;;;13.20;99.90;;;;;;4943299;29;20129;-76
2022/05/20 04:03:20;;;;;;;24.93;11.63;;;13.10;99.90;;;;;;4960116;29;20051;-77
2022/05/20 04:05:46;;;;;;;22.02;11.00;;;13.10;99.90;;;;;;4959604;29;20039;-77
2022/05/20 04:08:12;;;;;;;23.33;12.55;;;13.20;99.90;;;;;;4958844;29;20059;-75
2022/05/20 04:10:38;;;;;;;25.23;11.82;;;13.20;99.90;;;;;;4958274;29;20039;-76
2022/05/20 04:13:03;;;;;;;22.95;11.05;;;13.10;99.90;;;;;;4958964;28;20054;-76
2022/05/20 04:15:29;;;;;;;23.35;11.68;;;13.20;99.90;;;;;;4958603;28;20131;-77
2022/05/20 04:17:55;;;;;;;22.80;10.95;;;13.20;99.90;;;;;;4958980;29;20076;-75
2022/05/20 04:20:20;;;;;;;23.25;11.02;;;13.20;99.90;;;;;;4959373;28;20122;-75
2022/05/20 04:22:46;;;;;;;23.58;12.52;;;13.30;99.90;;;;;;4958977;29;20047;-75
2022/05/20 04:25:12;;;;;;;26.58;11.63;;;13.30;99.90;;;;;;4957502;28;20046;-75
2022/05/20 04:27:39;;;;;;;22.35;11.73;;;13.20;99.90;;;;;;4958486;29;20039;-76
2022/05/20 04:30:06;;;;;;;20.52;12.27;;;13.20;99.90;;;;;;4959158;28;20054;-76
2022/05/20 04:32:32;;;;;;;;;;;13.10;99.90;;;;;;4959740;29;20391;-75
2022/05/20 04:34:57;;;;;;;22.83;10.63;;;13.10;99.90;;;;;;4958529;29;19922;-77
2022/05/20 04:37:25;;;;;;;25.35;10.95;;;13.10;99.90;;;;;;4957232;29;20051;-76
2022/05/20 04:39:51;;;;;;;19.42;11.18;;;13.10;99.90;;;;;;4958072;29;20080;-76
2022/05/20 04:47:46;;;;;;;19.83;10.68;;;13.40;99.90;;;;;;4959579;28;20051;-76
2022/05/20 04:50:12;;;;;;;20.27;10.18;;;13.30;99.90;;;;;;4958976;29;20101;-76
2022/05/20 04:52:38;;;;;;;18.30;10.55;;;13.20;99.90;;;;;;4960280;29;20051;-77
2022/05/20 04:55:05;;;;;;;23.63;12.43;;;13.20;99.90;;;;;;4961095;28;20049;-76
2022/05/20 04:57:49;;;;;;;23.70;11.65;;;13.10;99.90;;;;;;4961105;29;20403;-77
2022/05/20 05:00:21;;;;;;;24.15;12.68;;;13.10;99.90;;;;;;4959716;28;20047;-75
2022/05/20 05:02:47;;;;;;;25.58;13.07;;;13.10;99.90;;;;;;4960887;29;20043;-76
2022/05/20 05:05:17;;;;;;;25.00;12.68;;;13.10;99.90;;;;;;4961300;28;20055;-76
2022/05/20 05:07:47;;;;;;;21.90;12.88;;;13.10;99.90;;;;;;4961483;28;20095;-75
2022/05/20 05:10:15;;;;;;;24.02;12.13;;;13.20;99.90;;;;;;4959566;29;20081;-76
2022/05/20 05:12:42;;;;;;;25.65;13.60;;;13.30;99.90;;;;;;4959759;29;20420;-77
2022/05/20 05:15:08;;;;;;;26.88;14.00;;;13.30;99.90;;;;;;4959387;28;20077;-76
2022/05/20 05:20:21;;;;;;;23.45;12.50;;;13.50;99.90;;;;;;4959303;29;20047;-77
2022/05/20 05:22:51;;;;;;;24.80;12.35;;;13.60;99.90;;;;;;4960521;28;20058;-77
2022/05/20 05:25:19;;;;;;;28.58;13.32;;;13.70;99.90;;;;;;4959334;29;20058;-77
2022/05/20 05:27:46;;;;;;;23.15;12.15;;;13.90;99.90;;;;;;4974693;28;20107;-76
2022/05/20 05:30:12;;;;;;;24.30;12.63;;;13.80;99.90;;;;;;4960576;29;20149;-76
2022/05/20 05:32:39;;;;;;;26.05;12.18;;;13.80;99.90;;;;;;4959889;28;20162;-75
2022/05/20 05:35:07;;;;;;;22.73;11.80;;;13.90;99.90;;;;;;4959909;29;20043;-76
2022/05/20 05:37:40;;;;;;;24.15;12.40;;;13.90;99.90;;;;;;4958877;29;20106;-76
2022/05/20 05:40:09;;;;;;;25.38;12.52;;;13.90;99.90;;;;;;4959308;28;20134;-77
2022/05/20 05:42:35;;;;;;;26.50;12.25;;;13.90;99.90;;;;;;4958892;29;20377;-76
2022/05/20 05:45:01;;;;;;;21.83;10.77;;;13.90;99.90;;;;;;4960713;28;20055;-78
2022/05/20 05:47:27;;;;;;;27.05;12.32;;;13.90;99.90;;;;;;4959695;28;20493;-77
2022/05/20 05:49:53;;;;;;;23.17;11.13;;;13.90;99.90;;;;;;4959653;29;20153;-76
2022/05/20 05:52:19;;;;;;;23.23;11.80;;;13.80;99.90;;;;;;4960341;29;20167;-76
2022/05/20 05:54:44;;;;;;;24.73;11.52;;;13.80;99.90;;;;;;4962326;28;20062;-78
2022/05/20 05:57:10;;;;;;;23.88;12.27;;;13.80;99.90;;;;;;4960938;29;20137;-75
2022/05/20 05:59:37;;;;;;;21.70;11.85;;;13.90;99.90;;;;;;4958032;29;20144;-75
2022/05/20 06:02:04;;;;;;;26.88;12.68;;;14.00;99.90;;;;;;4959013;29;20055;-76
2022/05/20 06:04:31;;;;;;;21.60;11.90;;;14.10;99.90;;;;;;4960147;28;20407;-76
2022/05/20 06:06:56;;;;;;;21.17;11.88;;;14.10;99.90;;;;;;4974896;28;20062;-76
2022/05/20 06:09:23;;;;;;;23.80;12.15;;;14.20;99.90;;;;;;4958647;29;20391;-76
2022/05/20 06:11:49;;;;;;;25.98;12.02;;;14.20;99.90;;;;;;4960210;29;20051;-76
2022/05/20 06:14:16;;;;;;;22.35;12.35;;;14.30;99.90;;;;;;4960365;29;20047;-77
2022/05/20 06:16:43;;;;;;;;;;;14.30;99.90;;;;;;4976032;28;20063;-76
2022/05/20 06:19:09;;;;;;;21.95;11.30;;;14.30;99.90;;;;;;4961442;28;19930;-76
2022/05/20 06:21:35;;;;;;;21.23;11.35;;;14.30;99.90;;;;;;4977524;28;20039;-78
2022/05/20 06:24:08;;;;;;;23.30;11.07;;;14.40;99.90;;;;;;4964297;29;20093;-76
2022/05/20 06:26:36;;;;;;;18.80;10.82;;;14.50;99.90;;;;;;4966365;28;20083;-77
2022/05/20 06:29:05;;;;;;;26.30;10.60;;;14.50;99.90;;;;;;4964950;28;20057;-76
2022/05/20 06:31:31;;;;;;;19.45;10.48;;;14.50;99.90;;;;;;4960633;29;20055;-76
2022/05/20 06:33:58;;;;;;;20.08;9.93;;;14.60;99.90;;;;;;4974912;28;20047;-76
2022/05/20 06:41:54;;;;;;;15.45;9.50;;;14.80;99.90;;;;;;4961191;29;20051;-76
2022/05/20 06:44:20;;;;;;;17.50;9.18;;;14.80;99.90;;;;;;4960416;29;20047;-77
2022/05/20 06:46:46;;;;;;;16.40;8.77;;;14.90;99.90;;;;;;4961766;29;20089;-80
2022/05/20 06:49:13;;;;;;;20.10;10.38;;;15.10;99.90;;;;;;4945571;29;20051;-75
2022/05/20 06:51:39;;;;;;;20.17;8.98;;;15.10;99.90;;;;;;4963492;28;20043;-77
2022/05/20 06:54:11;;;;;;;19.08;9.60;;;15.30;99.90;;;;;;4960182;29;20051;-77
2022/05/20 06:56:38;;;;;;;17.45;8.70;;;15.60;99.90;;;;;;4961278;28;20062;-76
2022/05/20 06:59:05;;;;;;;14.25;7.82;;;15.70;99.90;;;;;;4960301;29;20047;-76
2022/05/20 07:01:32;;;;;;;21.35;8.30;;;15.90;99.90;;;;;;4962575;28;20057;-76
2022/05/20 07:03:58;;;;;;;18.75;9.00;;;16.10;99.90;;;;;;4962112;29;20051;-74
2022/05/20 07:06:25;;;;;;;19.67;8.65;;;16.20;99.90;;;;;;4961627;28;20049;-75
2022/05/20 07:08:51;;;;;;;15.88;9.73;;;16.20;99.90;;;;;;4975018;28;20406;-80
2022/05/20 07:11:20;;;;;;;16.27;8.15;;;16.30;99.90;;;;;;4960162;29;20117;-77
2022/05/20 07:13:47;;;;;;;14.90;7.50;;;16.40;99.90;;;;;;4961056;28;20399;-78
2022/05/20 07:16:13;;;;;;;;;;;16.40;99.90;;;;;;4959012;29;20070;-77
2022/05/20 07:18:39;;;;;;;17.93;9.67;;;16.40;99.90;;;;;;4962000;28;19923;-77
2022/05/20 07:21:05;;;;;;;21.77;10.47;;;16.40;99.90;;;;;;4958421;29;20051;-78
2022/05/20 07:23:31;;;;;;;19.23;10.85;;;16.30;99.90;;;;;;4973876;28;20223;-77
2022/05/20 07:25:57;;;;;;;21.80;10.63;;;16.30;99.90;;;;;;4959301;28;20047;-75
2022/05/20 07:28:23;;;;;;;19.67;10.10;;;16.40;99.90;;;;;;4961751;29;20102;-76
2022/05/20 07:30:50;;;;;;;21.23;9.98;;;16.60;99.90;;;;;;4957364;29;20043;-76
2022/05/20 07:33:16;;;;;;;20.05;10.40;;;16.60;99.90;;;;;;4962949;28;20127;-76
2022/05/20 07:35:41;;;;;;;20.97;10.20;;;16.60;99.90;;;;;;4964437;29;20129;-79
2022/05/20 07:38:08;;;;;;;16.40;10.23;;;16.70;99.90;;;;;;4964281;28;20113;-76
2022/05/20 07:40:34;;;;;;;18.60;10.35;;;16.70;99.90;;;;;;4963445;29;20051;-78
2022/05/20 07:42:59;;;;;;;19.05;10.38;;;16.70;99.90;;;;;;4968022;29;20051;-75
2022/05/20 07:45:25;;;;;;;15.20;9.27;;;16.50;99.90;;;;;;4978808;28;20090;-79
2022/05/20 07:47:51;;;;;;;17.60;10.07;;;16.40;99.90;;;;;;4963899;28;20090;-75
2022/05/20 07:50:18;;;;;;;15.70;9.00;;;16.60;99.90;;;;;;4966615;28;20134;-76
2022/05/20 07:55:34;;;;;;;17.20;9.00;;;16.90;99.90;;;;;;4952810;29;20110;-76
2022/05/20 07:58:02;;;;;;;15.43;8.70;;;17.00;99.90;;;;;;4968184;29;20448;-76
2022/05/20 08:00:28;;;;;;;17.35;9.10;;;17.00;99.90;;;;;;4968016;28;20062;-76
2022/05/20 08:02:57;;;;;;;17.55;9.50;;;17.10;99.90;;;;;;4964714;29;20082;-78
2022/05/20 08:05:23;;;;;;;19.88;8.98;;;17.20;99.90;;;;;;4964166;29;20134;-77
2022/05/20 08:07:50;;;;;;;18.20;8.53;;;17.20;99.90;;;;;;4979814;28;20047;-77
2022/05/20 08:10:21;;;;;;;17.30;9.18;;;17.40;99.90;;;;;;4966093;29;20047;-79
2022/05/20 08:12:48;;;;;;;16.17;8.60;;;17.60;99.90;;;;;;4970523;28;20058;-75
2022/05/20 08:15:15;;;;;;;15.55;9.02;;;17.80;99.90;;;;;;4968388;29;20051;-77
2022/05/20 08:17:42;;;;;;;12.35;7.05;;;18.00;99.90;;;;;;4970007;29;20085;-77
2022/05/20 08:20:13;;;;;;;13.80;8.05;;;18.30;99.90;;;;;;4972024;28;20122;-76
2022/05/20 08:22:39;;;;;;;13.55;7.90;;;18.30;99.90;;;;;;4971145;29;20368;-80
2022/05/20 08:25:05;;;;;;;14.90;8.60;;;18.60;99.90;;;;;;4970169;29;20051;-78
2022/05/20 08:27:32;;;;;;;17.40;8.17;;;18.70;99.90;;;;;;4971024;29;20055;-78
2022/05/20 08:30:02;;;;;;;16.30;8.85;;;19.00;99.90;;;;;;4970058;29;20074;-77
2022/05/20 08:32:31;;;;;;;15.73;8.35;;;18.90;99.90;;;;;;4970707;28;20090;-78
2022/05/20 08:34:57;;;;;;;14.30;8.45;;;18.70;99.90;;;;;;4971132;28;20047;-80
2022/05/20 08:37:22;;;;;;;14.63;7.63;;;18.60;99.90;;;;;;4971719;29;20050;-79
2022/05/20 08:39:48;;;;;;;14.43;8.50;;;18.50;99.90;;;;;;4953240;29;20134;-77
2022/05/20 08:42:19;;;;;;;15.17;8.20;;;18.40;99.90;;;;;;4967501;29;20107;-77
2022/05/20 08:44:45;;;;;;;15.77;7.72;;;18.40;99.90;;;;;;4968204;29;20290;-77
2022/05/20 08:47:24;;;;;;;13.88;7.60;;;18.40;99.90;;;;;;4962966;29;20070;-78
2022/05/20 08:49:53;;;;;;;16.45;8.07;;;18.50;99.90;;;;;;4963873;28;20047;-77
2022/05/20 08:52:19;;;;;;;12.80;7.50;;;18.70;99.90;;;;;;4968652;28;20340;-78
2022/05/20 08:54:46;;;;;;;13.63;7.70;;;18.70;99.90;;;;;;4967569;29;20078;-77
2022/05/20 08:57:25;;;;;;;12.52;7.65;;;18.60;99.90;;;;;;4959510;29;20051;-78
2022/05/20 08:59:51;;;;;;;12.68;6.72;;;18.80;99.90;;;;;;4964705;28;20047;-78
2022/05/20 09:02:17;;;;;;;13.30;7.20;;;19.00;99.90;;;;;;4968593;28;20129;-78
2022/05/20 09:04:43;;;;;;;15.40;6.87;;;19.00;99.90;;;;;;4986650;28;20090;-80
2022/05/20 09:07:11;;;;;;;9.83;6.33;;;19.00;99.90;;;;;;4951038;29;20051;-80
2022/05/20 09:09:52;;;;;;;14.00;6.82;;;19.00;99.90;;;;;;4965208;29;20067;-79
2022/05/20 09:12:31;;;;;;;11.43;6.78;;;;;;;;;;4970362;29;20051;-81
2022/05/20 09:17:49;;;;;;;10.85;5.53;;;18.80;99.90;;;;;;4970396;29;20055;-79
2022/05/20 09:20:18;;;;;;;12.70;5.38;;;19.10;99.90;;;;;;4968064;28;20121;-78
2022/05/20 09:23:01;;;;;;;11.68;5.65;;;18.80;99.90;;;;;;4968136;29;20055;-81
2022/05/20 09:25:33;;;;;;;12.52;6.68;;;19.00;99.90;;;;;;4968800;28;20376;-80
2022/05/20 09:28:33;;;;;;;13.15;7.30;;;19.30;99.90;;;;;;4969241;29;20070;-79
2022/05/20 09:31:21;;;;;;;13.95;6.63;;;19.50;99.90;;;;;;4986495;28;20046;-78
2022/05/20 09:33:52;;;;;;;10.30;6.05;;;19.70;99.90;;;;;;4971965;28;20224;-79
2022/05/20 09:36:39;;;;;;;16.17;7.03;;;19.90;99.90;;;;;;4970315;28;20047;-77
2022/05/20 09:39:18;;;;;;;12.35;5.85;;;20.30;99.90;;;;;;4967493;29;20066;-78
2022/05/20 09:41:53;;;;;;;9.60;5.95;;;20.30;99.90;;;;;;4968211;29;20133;-77
2022/05/20 09:44:23;;;;;;;13.88;7.18;;;20.10;99.90;;;;;;4968400;28;20043;-77
2022/05/20 09:47:33;;;;;;;14.05;7.32;;;20.40;99.90;;;;;;4967691;28;20086;-77
2022/05/20 09:50:27;;;;;;;11.48;6.97;;;20.50;99.90;;;;;;4964706;29;20134;-79
2022/05/20 09:52:58;;;;;;;12.63;6.22;;;20.10;99.90;;;;;;4966552;29;20051;-78
2022/05/20 09:55:31;;;;;;;10.13;5.65;;;20.30;99.90;;;;;;4967141;29;20051;-78
2022/05/20 09:58:27;;;;;;;10.15;6.10;;;20.40;99.90;;;;;;4970160;28;20058;-79
2022/05/20 10:01:02;;;;;;;12.10;6.82;;;20.30;99.90;;;;;;4969337;28;20043;-78
2022/05/20 10:03:31;;;;;;;13.95;7.22;;;20.40;99.90;;;;;;4969317;28;20043;-78
2022/05/20 10:06:12;;;;;;;11.95;6.40;;;20.80;99.90;;;;;;4967617;29;20051;-76
2022/05/20 10:09:01;;;;;;;11.20;6.20;;;20.90;99.90;;;;;;4968722;28;20042;-78
2022/05/20 10:12:03;;;;;;;10.90;6.47;;;21.20;99.90;;;;;;4967738;28;20043;-76
2022/05/20 10:14:53;;;;;;;11.55;6.13;;;21.10;99.90;;;;;;4967594;28;20048;-79
2022/05/20 10:17:30;;;;;;;10.57;5.38;;;20.90;99.90;;;;;;4967470;29;20094;-78
2022/05/20 10:20:08;;;;;;;9.48;4.95;;;20.90;99.90;;;;;;4967587;29;20051;-77
2022/05/20 10:22:45;;;;;;;9.07;4.45;;;21.00;99.90;;;;;;4970738;29;20054;-78
2022/05/20 10:25:24;;;;;;;9.57;5.40;;;21.10;99.90;;;;;;4968570;29;20062;-78
2022/05/20 10:32:34;;;;;;;10.30;6.00;;;21.30;99.90;;;;;;4970071;29;20051;-78
2022/05/20 10:33:52;;;;;;;11.95;6.18;;;21.10;99.90;;;;;;4968906;29;20066;-77
2022/05/20 10:36:47;;;;;;;13.83;6.90;;;21.10;99.90;;;;;;4969459;29;20074;-77
2022/05/20 10:39:42;;;;;;;11.03;6.20;;;21.10;99.90;;;;;;4970450;29;20130;-77
2022/05/20 10:42:45;;;;;;;9.10;5.37;;;21.20;99.90;;;;;;4982327;28;20291;-79
2022/05/20 10:51:05;;;;;;;11.18;6.28;;;21.40;98.10;;;;;;4963597;29;20055;-77
2022/05/20 10:53:57;;;;;;;10.73;6.70;;;21.50;97.20;;;;;;4965413;28;20051;-77
2022/05/20 10:56:30;;;;;;;12.63;7.00;;;21.60;96.40;;;;;;4964839;29;20070;-81
2022/05/20 10:59:17;;;;;;;10.98;6.88;;;21.70;96.60;;;;;;4961849;29;20098;-77
2022/05/20 11:01:58;;;;;;;12.15;7.82;;;21.80;96.90;;;;;;4962373;29;20047;-78
2022/05/20 11:04:24;;;;;;;17.88;8.63;;;21.80;96.90;;;;;;4961023;29;20047;-79
2022/05/20 11:07:08;;;;;;;16.03;8.63;;;21.80;96.30;;;;;;4960876;29;20050;-77
2022/05/20 11:10:00;;;;;;;12.20;8.75;;;21.80;94.50;;;;;;4959336;29;20052;-78
2022/05/20 11:12:41;;;;;;;12.73;7.85;;;21.70;95.30;;;;;;4959007;29;20377;-78
2022/05/20 11:15:18;;;;;;;16.20;8.43;;;21.60;96.00;;;;;;4958907;29;20058;-79
2022/05/20 11:18:02;;;;;;;;;;;21.70;95.80;;;;;;4958524;29;20135;-77
2022/05/20 11:20:58;;;;;;;14.95;8.93;;;21.80;98.00;;;;;;4958473;29;20425;-79
2022/05/20 11:23:43;;;;;;;13.23;9.07;;;22.00;96.50;;;;;;4975101;28;20039;-75
2022/05/20 11:26:23;;;;;;;15.27;8.48;;;21.90;99.10;;;;;;4960729;28;20055;-77
2022/05/20 11:29:09;;;;;;;12.85;8.63;;;22.00;95.90;;;;;;4963300;28;20070;-77
2022/05/20 11:31:48;;;;;;;12.52;8.18;;;21.90;96.60;;;;;;4947411;29;20043;-77
2022/05/20 11:34:48;;;;;;;14.23;7.88;;;21.90;96.30;;;;;;4963017;28;20424;-76
2022/05/20 11:37:29;;;;;;;12.82;7.50;;;21.90;95.90;;;;;;4963180;29;20055;-82
2022/05/20 11:40:12;;;;;;;13.63;6.88;;;22.00;95.70;;;;;;4963271;28;20054;-76
2022/05/20 11:42:49;;;;;;;12.52;6.60;;;22.00;92.50;;;;;;4962798;29;20159;-76
2022/05/20 11:45:24;;;;;;;11.15;7.03;;;22.00;93.10;;;;;;4960501;29;20053;-78
2022/05/20 11:48:33;;;;;;;12.85;7.68;;;22.10;93.80;;;;;;4960636;29;20149;-76
2022/05/20 11:51:30;;;;;;;14.27;7.72;;;22.20;92.20;;;;;;4938022;29;20075;-76
2022/05/20 11:54:12;;;;;;;14.35;8.38;;;22.20;92.20;;;;;;4958176;28;20043;-76
2022/05/20 11:57:02;;;;;;;13.82;8.05;;;22.30;92.20;;;;;;4958026;29;20093;-78
2022/05/20 11:59:44;;;;;;;15.93;7.55;;;22.30;92.30;;;;;;4957237;29;20055;-79
2022/05/20 12:02:17;;;;;;;12.95;7.90;;;22.30;92.60;;;;;;4958348;29;20402;-82
2022/05/20 12:04:45;;;;;;;14.45;7.78;;;22.30;91.90;;;;;;4959001;28;20058;-79
2022/05/20 12:07:15;;;;;;;15.40;7.53;;;22.30;91.80;;;;;;4945623;29;20114;-78
2022/05/20 12:09:41;;;;;;;12.23;8.02;;;22.20;91.40;;;;;;4962686;29;20173;-77
2022/05/20 12:12:11;;;;;;;12.83;7.40;;;22.10;91.50;;;;;;4961771;28;20135;-78
2022/05/20 12:15:02;;;;;;;9.98;6.43;;;22.20;92.10;;;;;;4958737;29;20484;-77
2022/05/20 12:17:32;;;;;;;11.38;5.93;;;22.30;92.40;;;;;;4959421;29;20110;-78
2022/05/20 12:26:38;;;;;;;8.88;5.90;;;22.50;89.40;;;;;;4962820;29;20110;-77
2022/05/20 12:29:35;;;;;;;9.98;5.85;;;22.60;90.20;;;;;;4962012;29;20047;-77
2022/05/20 12:32:31;;;;;;;11.15;6.50;;;22.70;90.30;;;;;;4973895;28;20567;-77
2022/05/20 12:35:08;;;;;;;13.68;7.15;;;22.70;90.90;;;;;;4955774;29;20071;-75
2022/05/20 12:37:43;;;;;;;13.05;8.00;;;22.70;88.50;;;;;;4961855;28;20068;-76
2022/05/20 12:40:32;;;;;;;12.48;7.90;;;22.60;89.80;;;;;;4959637;29;20059;-79
2022/05/20 12:43:05;;;;;;;11.43;6.80;;;22.60;89.70;;;;;;4957173;28;20059;-79
2022/05/20 12:45:47;;;;;;;14.05;7.13;;;22.40;89.20;;;;;;4960206;29;20145;-78
2022/05/20 12:48:14;;;;;;;11.18;6.97;;;22.20;90.00;;;;;;4943142;29;20416;-80
2022/05/20 12:50:40;;;;;;;12.82;7.85;;;22.10;89.80;;;;;;4961889;28;20043;-78
2022/05/20 12:53:11;;;;;;;13.48;7.07;;;22.10;89.20;;;;;;4944367;29;20138;-78
2022/05/20 12:55:43;;;;;;;12.30;6.93;;;22.10;90.40;;;;;;4945417;29;20436;-78
2022/05/20 12:58:12;;;;;;;12.40;7.30;;;22.00;91.40;;;;;;4962979;28;20043;-77
2022/05/20 13:00:48;;;;;;;11.17;7.50;;;21.90;91.10;;;;;;4960901;29;20062;-79
2022/05/20 13:03:28;;;;;;;11.75;7.07;;;21.70;91.40;;;;;;4961830;28;20057;-79
2022/05/20 13:06:04;;;;;;;13.27;7.32;;;21.60;92.00;;;;;;4961649;29;20113;-79
2022/05/20 13:08:42;;;;;;;13.70;7.88;;;21.40;91.50;;;;;;4963598;29;20122;-77
2022/05/20 13:11:10;;;;;;;17.40;8.57;;;21.20;91.90;;;;;;4963036;28;20051;-78
2022/05/20 13:13:36;;;;;;;13.93;7.93;;;21.00;92.60;;;;;;4963271;29;20044;-79
2022/05/20 13:16:05;;;;;;;15.82;8.07;;;20.70;93.30;;;;;;4961274;29;20059;-76
2022/05/20 13:18:35;;;;;;;12.30;7.68;;;20.70;94.30;;;;;;4962210;29;20055;-77
2022/05/20 13:21:16;;;;;;;13.40;7.75;;;20.60;94.50;;;;;;4961232;28;20070;-76
2022/05/20 13:23:47;;;;;;;19.13;9.65;;;20.50;95.70;;;;;;4958544;28;20071;-76
2022/05/20 13:26:25;;;;;;;16.23;9.57;;;20.40;95.30;;;;;;4964566;29;20530;-76
2022/05/20 13:28:51;;;;;;;17.85;9.90;;;20.40;97.50;;;;;;4978044;28;20166;-76
2022/05/20 13:31:22;;;;;;;;;;;20.20;96.90;;;;;;4948538;29;20495;-77
2022/05/20 13:33:48;;;;;;;21.58;9.85;;;20.10;98.30;;;;;;4965089;28;19922;-80
2022/05/20 13:36:22;;;;;;;20.17;10.85;;;20.00;98.60;;;;;;4981647;28;20112;-78
2022/05/20 13:39:00;;;;;;;17.75;10.70;;;19.90;99.90;;;;;;4963657;29;20047;-79
2022/05/20 13:41:30;;;;;;;19.77;11.05;;;19.70;99.90;;;;;;4964878;29;20053;-77